createdAt,value
2018-05-21T00:00:23.817Z,15.20
2018-05-21T00:01:27.974Z,15.20
2018-05-21T00:02:32.176Z,15.10
2018-05-21T00:03:36.324Z,15.10
2018-05-21T00:04:40.476Z,15.10
2018-05-21T00:05:45.395Z,15.10
2018-05-21T00:06:49.549Z,15.10
2018-05-21T00:07:53.825Z,15.10
2018-05-21T00:08:57.991Z,15.20
2018-05-21T00:10:02.145Z,15.20
2018-05-21T00:11:07.061Z,15.20
2018-05-21T00:12:11.971Z,15.30
2018-05-21T00:13:16.151Z,15.30
2018-05-21T00:14:20.310Z,15.30
2018-05-21T00:15:25.217Z,15.30
2018-05-21T00:16:29.364Z,15.20
2018-05-21T00:17:33.501Z,15.20
2018-05-21T00:18:37.785Z,15.30
2018-05-21T00:19:41.939Z,15.30
2018-05-21T00:20:46.085Z,15.30
2018-05-21T00:21:51.042Z,15.30
2018-05-21T00:22:55.212Z,15.30
2018-05-21T00:23:59.396Z,15.30
2018-05-21T00:25:03.822Z,15.30
2018-05-21T00:26:07.965Z,15.30
2018-05-21T00:27:12.872Z,15.40
2018-05-21T00:28:17.291Z,15.30
2018-05-21T00:29:21.453Z,15.30
2018-05-21T00:30:25.604Z,15.30
2018-05-21T00:31:29.754Z,15.20
2018-05-21T00:32:33.901Z,15.20
2018-05-21T00:33:38.068Z,15.20
2018-05-21T00:34:42.239Z,15.20
2018-05-21T00:35:46.384Z,15.20
2018-05-21T00:36:50.532Z,15.20
2018-05-21T00:37:54.689Z,15.20
2018-05-21T00:38:58.918Z,15.30
2018-05-21T00:40:03.085Z,15.20
2018-05-21T00:41:07.241Z,15.20
2018-05-21T00:42:11.380Z,15.20
2018-05-21T00:43:15.612Z,15.10
2018-05-21T00:44:20.606Z,15.10
2018-05-21T00:45:24.758Z,15.20
2018-05-21T00:46:29.729Z,15.10
2018-05-21T00:47:33.894Z,15.10
2018-05-21T00:48:38.049Z,15.10
2018-05-21T00:49:42.241Z,15.10
2018-05-21T00:50:47.345Z,15.10
2018-05-21T00:51:51.496Z,15.00
2018-05-21T00:52:55.637Z,15.10
2018-05-21T00:53:59.781Z,15.00
2018-05-21T00:55:22.462Z,15.00
2018-05-21T00:56:26.638Z,15.00
2018-05-21T00:57:30.788Z,15.00
2018-05-21T00:58:34.932Z,15.00
2018-05-21T00:59:39.082Z,14.90
2018-05-21T01:00:43.315Z,14.90
2018-05-21T01:01:47.461Z,14.90
2018-05-21T01:02:51.632Z,14.90
2018-05-21T01:03:55.790Z,14.90
2018-05-21T01:04:59.942Z,14.80
2018-05-21T01:06:04.094Z,14.80
2018-05-21T01:07:08.257Z,14.80
2018-05-21T01:08:12.541Z,14.80
2018-05-21T01:09:16.693Z,14.80
2018-05-21T01:10:20.868Z,14.80
2018-05-21T01:11:25.013Z,14.80
2018-05-21T01:12:29.169Z,14.70
2018-05-21T01:13:33.341Z,14.70
2018-05-21T01:14:37.508Z,14.80
2018-05-21T01:15:41.724Z,14.70
2018-05-21T01:16:45.831Z,14.70
2018-05-21T01:17:50.803Z,14.70
2018-05-21T01:18:55.694Z,14.70
2018-05-21T01:20:00.613Z,14.70
2018-05-21T01:21:05.525Z,14.70
2018-05-21T01:22:09.675Z,14.70
2018-05-21T01:23:13.854Z,14.60
2018-05-21T01:24:18.003Z,14.60
2018-05-21T01:25:22.297Z,14.60
2018-05-21T01:26:26.446Z,14.50
2018-05-21T01:27:30.602Z,14.50
2018-05-21T01:28:35.523Z,14.50
2018-05-21T01:29:40.444Z,14.50
2018-05-21T01:30:44.671Z,14.50
2018-05-21T01:31:49.602Z,14.50
2018-05-21T01:32:54.531Z,14.40
2018-05-21T01:33:58.673Z,14.40
2018-05-21T01:35:02.886Z,14.40
2018-05-21T01:36:07.161Z,14.40
2018-05-21T01:37:12.073Z,14.30
2018-05-21T01:38:17.850Z,14.30
2018-05-21T01:39:22.007Z,14.40
2018-05-21T01:40:26.166Z,14.30
2018-05-21T01:41:30.377Z,14.30
2018-05-21T01:42:34.526Z,14.30
2018-05-21T01:43:38.677Z,14.30
2018-05-21T01:44:42.849Z,14.30
2018-05-21T01:45:46.997Z,14.30
2018-05-21T01:46:51.933Z,14.30
2018-05-21T01:47:56.910Z,14.30
2018-05-21T01:49:01.070Z,14.20
2018-05-21T01:50:05.993Z,14.20
2018-05-21T01:51:10.935Z,14.20
2018-05-21T01:52:16.041Z,14.20
2018-05-21T01:53:21.366Z,14.10
2018-05-21T01:54:25.585Z,14.20
2018-05-21T01:55:29.742Z,14.20
2018-05-21T01:56:33.893Z,14.10
2018-05-21T01:57:38.820Z,14.10
2018-05-21T01:58:43.002Z,14.10
2018-05-21T01:59:47.158Z,14.10
2018-05-21T02:00:52.060Z,14.10
2018-05-21T02:01:56.225Z,14.10
2018-05-21T02:03:00.387Z,14.10
2018-05-21T02:04:04.555Z,14.00
2018-05-21T02:05:08.700Z,14.00
2018-05-21T02:06:12.848Z,14.00
2018-05-21T02:07:16.998Z,14.00
2018-05-21T02:08:21.234Z,13.90
2018-05-21T02:09:25.398Z,13.90
2018-05-21T02:10:29.556Z,13.90
2018-05-21T02:11:33.713Z,13.90
2018-05-21T02:12:37.866Z,13.90
2018-05-21T02:13:42.510Z,13.90
2018-05-21T02:14:46.719Z,13.90
2018-05-21T02:15:51.630Z,13.80
2018-05-21T02:16:55.785Z,13.80
2018-05-21T02:17:59.936Z,13.80
2018-05-21T02:19:04.574Z,13.80
2018-05-21T02:20:08.809Z,13.80
2018-05-21T02:21:12.905Z,13.70
2018-05-21T02:22:17.817Z,13.70
2018-05-21T02:23:21.968Z,13.60
2018-05-21T02:24:26.142Z,13.60
2018-05-21T02:25:30.297Z,13.60
2018-05-21T02:26:34.473Z,13.60
2018-05-21T02:27:38.633Z,13.60
2018-05-21T02:28:42.792Z,13.60
2018-05-21T02:29:47.711Z,13.50
2018-05-21T02:30:51.856Z,13.50
2018-05-21T02:31:56.430Z,13.50
2018-05-21T02:33:00.590Z,13.50
2018-05-21T02:34:04.745Z,13.50
2018-05-21T02:35:08.917Z,13.50
2018-05-21T02:36:13.065Z,13.50
2018-05-21T02:37:17.653Z,13.40
2018-05-21T02:38:21.805Z,13.40
2018-05-21T02:39:26.726Z,13.30
2018-05-21T02:40:30.952Z,13.30
2018-05-21T02:41:35.861Z,13.30
2018-05-21T02:42:40.039Z,13.30
2018-05-21T02:43:44.191Z,13.30
2018-05-21T02:44:49.110Z,13.30
2018-05-21T02:45:53.335Z,13.30
2018-05-21T02:46:58.272Z,13.30
2018-05-21T02:48:03.193Z,13.20
2018-05-21T02:49:08.174Z,13.20
2018-05-21T02:50:12.317Z,13.10
2018-05-21T02:51:16.469Z,13.10
2018-05-21T02:52:20.670Z,13.00
2018-05-21T02:53:24.817Z,13.10
2018-05-21T02:54:29.040Z,13.00
2018-05-21T02:55:33.211Z,13.00
2018-05-21T02:56:37.352Z,13.00
2018-05-21T02:57:41.501Z,12.90
2018-05-21T02:58:46.415Z,12.90
2018-05-21T02:59:50.688Z,12.90
2018-05-21T03:00:54.925Z,12.90
2018-05-21T03:01:59.081Z,12.90
2018-05-21T03:03:03.228Z,12.90
2018-05-21T03:04:07.382Z,12.90
2018-05-21T03:05:12.321Z,12.90
2018-05-21T03:06:17.229Z,12.90
2018-05-21T03:07:22.132Z,12.80
2018-05-21T03:08:26.302Z,12.80
2018-05-21T03:09:30.808Z,12.80
2018-05-21T03:10:34.958Z,12.80
2018-05-21T03:11:39.118Z,12.80
2018-05-21T03:12:43.264Z,12.80
2018-05-21T03:13:47.404Z,12.80
2018-05-21T03:14:51.587Z,12.80
2018-05-21T03:15:55.733Z,12.80
2018-05-21T03:16:59.872Z,12.80
2018-05-21T03:18:04.021Z,12.80
2018-05-21T03:19:08.188Z,12.80
2018-05-21T03:20:12.338Z,12.70
2018-05-21T03:21:16.537Z,12.70
2018-05-21T03:22:20.697Z,12.70
2018-05-21T03:23:25.613Z,12.60
2018-05-21T03:24:29.764Z,12.60
2018-05-21T03:25:33.929Z,12.60
2018-05-21T03:26:38.209Z,12.50
2018-05-21T03:27:42.354Z,12.50
2018-05-21T03:28:46.505Z,12.60
2018-05-21T03:29:50.645Z,12.60
2018-05-21T03:30:54.796Z,12.60
2018-05-21T03:32:00.148Z,12.60
2018-05-21T03:33:04.306Z,12.60
2018-05-21T03:34:08.464Z,12.60
2018-05-21T03:35:13.379Z,12.60
2018-05-21T03:36:18.299Z,12.70
2018-05-21T03:37:22.485Z,12.70
2018-05-21T03:38:26.653Z,12.70
2018-05-21T03:39:30.960Z,12.70
2018-05-21T03:40:35.123Z,12.70
2018-05-21T03:41:39.276Z,12.70
2018-05-21T03:42:43.437Z,12.70
2018-05-21T03:43:47.592Z,12.70
2018-05-21T03:44:51.844Z,12.70
2018-05-21T03:45:55.990Z,12.70
2018-05-21T03:47:00.148Z,12.70
2018-05-21T03:48:04.298Z,12.70
2018-05-21T03:49:09.215Z,12.60
2018-05-21T03:50:13.394Z,12.60
2018-05-21T03:51:17.593Z,12.60
2018-05-21T03:52:21.740Z,12.60
2018-05-21T03:53:25.893Z,12.60
2018-05-21T03:54:30.041Z,12.60
2018-05-21T03:55:34.191Z,12.60
2018-05-21T03:56:38.369Z,12.60
2018-05-21T03:57:42.519Z,12.60
2018-05-21T03:59:05.110Z,12.60
2018-05-21T04:02:10.548Z,12.60
2018-05-21T04:03:32.481Z,12.60
2018-05-21T04:04:36.665Z,12.60
2018-05-21T04:05:41.578Z,12.70
2018-05-21T04:06:46.498Z,12.90
2018-05-21T04:07:50.653Z,12.90
2018-05-21T04:08:54.813Z,13.20
2018-05-21T04:09:58.973Z,13.50
2018-05-21T04:11:03.185Z,13.80
2018-05-21T04:12:07.353Z,14.10
2018-05-21T04:13:11.506Z,14.40
2018-05-21T04:14:15.658Z,14.60
2018-05-21T04:15:19.808Z,14.90
2018-05-21T04:16:24.029Z,15.10
2018-05-21T04:17:28.177Z,15.20
2018-05-21T04:18:32.317Z,15.40
2018-05-21T04:19:37.228Z,15.70
2018-05-21T04:20:41.382Z,15.70
2018-05-21T04:21:45.581Z,15.90
2018-05-21T04:22:49.729Z,16.00
2018-05-21T04:23:53.886Z,16.00
2018-05-21T04:24:58.817Z,16.20
2018-05-21T04:26:03.762Z,16.30
2018-05-21T04:27:07.949Z,16.20
2018-05-21T04:28:12.154Z,16.30
2018-05-21T04:29:16.305Z,16.30
2018-05-21T04:30:20.451Z,16.40
2018-05-21T04:31:24.604Z,16.50
2018-05-21T04:32:29.512Z,16.50
2018-05-21T04:33:33.681Z,16.40
2018-05-21T04:34:38.157Z,16.50
2018-05-21T04:35:43.081Z,16.60
2018-05-21T04:36:47.993Z,16.70
2018-05-21T04:37:52.139Z,16.70
2018-05-21T04:38:56.291Z,16.80
2018-05-21T04:40:00.462Z,16.80
2018-05-21T04:41:04.625Z,16.80
2018-05-21T04:42:08.773Z,16.90
2018-05-21T04:43:12.936Z,17.00
2018-05-21T04:44:17.094Z,17.10
2018-05-21T04:45:21.246Z,17.00
2018-05-21T04:46:25.402Z,17.10
2018-05-21T04:47:29.557Z,17.20
2018-05-21T04:48:34.102Z,17.20
2018-05-21T04:49:39.756Z,17.20
2018-05-21T04:50:44.673Z,17.20
2018-05-21T04:51:48.895Z,17.20
2018-05-21T04:52:53.800Z,17.00
2018-05-21T04:53:58.454Z,17.00
2018-05-21T04:55:03.362Z,16.30
2018-05-21T04:56:08.276Z,15.90
2018-05-21T04:57:12.430Z,15.90
2018-05-21T04:58:16.573Z,15.50
2018-05-21T04:59:20.861Z,15.20
2018-05-21T05:00:25.003Z,14.90
2018-05-21T05:01:29.162Z,14.70
2018-05-21T05:02:33.315Z,14.60
2018-05-21T05:03:38.228Z,14.40
2018-05-21T05:04:42.433Z,14.30
2018-05-21T05:05:46.577Z,14.30
2018-05-21T05:06:50.741Z,14.30
2018-05-21T05:07:54.879Z,14.20
2018-05-21T05:08:59.021Z,14.20
2018-05-21T05:10:03.960Z,14.20
2018-05-21T05:11:08.864Z,14.20
2018-05-21T05:12:13.034Z,14.20
2018-05-21T05:13:17.184Z,14.20
2018-05-21T05:14:21.344Z,14.10
2018-05-21T05:15:25.620Z,14.20
2018-05-21T05:16:29.772Z,14.20
2018-05-21T05:17:33.917Z,14.20
2018-05-21T05:18:38.078Z,14.30
2018-05-21T05:19:42.225Z,14.30
2018-05-21T05:20:46.403Z,14.30
2018-05-21T05:21:50.563Z,14.30
2018-05-21T05:22:54.728Z,14.30
2018-05-21T05:23:58.880Z,14.40
2018-05-21T05:25:03.029Z,14.40
2018-05-21T05:26:07.214Z,14.40
2018-05-21T05:27:11.786Z,14.50
2018-05-21T05:28:15.933Z,14.50
2018-05-21T05:29:20.082Z,14.50
2018-05-21T05:30:24.225Z,14.50
2018-05-21T05:31:28.377Z,14.60
2018-05-21T05:32:33.419Z,14.60
2018-05-21T05:33:38.353Z,14.60
2018-05-21T05:34:42.510Z,14.60
2018-05-21T05:35:46.662Z,14.60
2018-05-21T05:36:51.585Z,14.70
2018-05-21T05:37:56.529Z,14.70
2018-05-21T05:39:00.714Z,14.70
2018-05-21T05:40:04.925Z,14.70
2018-05-21T05:41:09.841Z,14.70
2018-05-21T05:42:13.994Z,14.70
2018-05-21T05:43:18.142Z,14.80
2018-05-21T05:44:22.294Z,14.80
2018-05-21T05:45:26.877Z,14.80
2018-05-21T05:46:31.039Z,14.90
2018-05-21T05:47:35.185Z,15.00
2018-05-21T05:48:39.338Z,15.00
2018-05-21T05:49:44.249Z,15.10
2018-05-21T05:50:48.416Z,15.10
2018-05-21T05:51:52.557Z,15.10
2018-05-21T05:52:56.714Z,15.20
2018-05-21T05:54:00.862Z,15.20
2018-05-21T05:55:05.057Z,15.30
2018-05-21T05:56:09.205Z,15.30
2018-05-21T05:57:13.373Z,15.40
2018-05-21T05:58:17.522Z,15.40
2018-05-21T05:59:21.666Z,15.50
2018-05-21T06:00:25.961Z,15.50
2018-05-21T06:01:30.884Z,15.60
2018-05-21T06:02:35.810Z,15.70
2018-05-21T06:03:40.745Z,15.70
2018-05-21T06:04:44.898Z,15.70
2018-05-21T06:05:49.082Z,15.80
2018-05-21T06:06:53.580Z,15.80
2018-05-21T06:07:58.502Z,15.90
2018-05-21T06:09:02.645Z,15.90
2018-05-21T06:10:06.785Z,16.00
2018-05-21T06:11:10.931Z,16.00
2018-05-21T06:12:15.994Z,16.20
2018-05-21T06:13:20.141Z,16.10
2018-05-21T06:14:24.300Z,16.20
2018-05-21T06:15:28.481Z,16.30
2018-05-21T06:16:32.635Z,16.40
2018-05-21T06:17:36.804Z,16.40
2018-05-21T06:18:40.940Z,16.40
2018-05-21T06:19:45.227Z,16.50
2018-05-21T06:20:49.374Z,16.50
2018-05-21T06:21:53.516Z,16.50
2018-05-21T06:22:57.656Z,16.60
2018-05-21T06:24:02.572Z,16.70
2018-05-21T06:25:06.867Z,16.60
2018-05-21T06:26:11.009Z,16.70
2018-05-21T06:27:15.941Z,16.80
2018-05-21T06:28:20.853Z,16.90
2018-05-21T06:29:25.001Z,16.90
2018-05-21T06:30:29.310Z,17.00
2018-05-21T06:31:33.524Z,17.00
2018-05-21T06:32:37.673Z,17.10
2018-05-21T06:33:41.820Z,17.10
2018-05-21T06:34:46.730Z,17.10
2018-05-21T06:35:50.898Z,17.10
2018-05-21T06:36:55.187Z,17.10
2018-05-21T06:37:59.301Z,17.20
2018-05-21T06:39:03.441Z,17.20
2018-05-21T06:40:07.598Z,17.30
2018-05-21T06:41:12.507Z,17.30
2018-05-21T06:42:16.840Z,17.30
2018-05-21T06:43:21.753Z,17.40
2018-05-21T06:44:25.923Z,17.40
2018-05-21T06:45:30.087Z,17.40
2018-05-21T06:46:34.998Z,17.50
2018-05-21T06:47:39.202Z,17.40
2018-05-21T06:48:43.409Z,17.50
2018-05-21T06:49:47.582Z,17.60
2018-05-21T06:50:51.754Z,17.60
2018-05-21T06:51:56.671Z,17.70
2018-05-21T06:53:01.601Z,17.80
2018-05-21T06:54:05.827Z,17.80
2018-05-21T06:55:10.406Z,17.80
2018-05-21T06:56:14.603Z,17.80
2018-05-21T06:57:18.773Z,17.80
2018-05-21T06:58:22.974Z,17.90
2018-05-21T06:59:27.925Z,18.00
2018-05-21T07:00:32.122Z,18.00
2018-05-21T07:01:36.291Z,18.10
2018-05-21T07:02:40.518Z,18.10
2018-05-21T07:03:44.715Z,18.00
2018-05-21T07:04:48.940Z,18.00
2018-05-21T07:05:54.226Z,18.10
2018-05-21T07:06:58.380Z,18.10
2018-05-21T07:08:02.594Z,18.20
2018-05-21T07:09:06.713Z,18.30
2018-05-21T07:10:11.661Z,18.30
2018-05-21T07:11:15.873Z,18.30
2018-05-21T07:12:20.023Z,18.30
2018-05-21T07:13:24.183Z,18.40
2018-05-21T07:14:28.365Z,18.40
2018-05-21T07:15:33.315Z,18.40
2018-05-21T07:16:37.522Z,18.50
2018-05-21T07:17:42.489Z,18.60
2018-05-21T07:18:46.633Z,18.60
2018-05-21T07:19:50.822Z,18.60
2018-05-21T07:20:55.729Z,18.80
2018-05-21T07:21:59.910Z,18.80
2018-05-21T07:23:04.298Z,18.90
2018-05-21T07:24:08.490Z,19.00
2018-05-21T07:25:13.461Z,19.00
2018-05-21T07:26:17.664Z,19.10
2018-05-21T07:27:22.589Z,19.10
2018-05-21T07:28:27.526Z,19.10
2018-05-21T07:29:31.712Z,19.10
2018-05-21T07:30:36.849Z,19.20
2018-05-21T07:31:40.997Z,19.10
2018-05-21T07:32:45.145Z,19.10
2018-05-21T07:33:49.354Z,19.10
2018-05-21T07:34:53.556Z,19.10
2018-05-21T07:35:57.733Z,19.10
2018-05-21T07:37:01.897Z,19.20
2018-05-21T07:38:06.056Z,19.20
2018-05-21T07:39:10.215Z,19.20
2018-05-21T07:40:14.413Z,19.10
2018-05-21T07:41:19.508Z,19.20
2018-05-21T07:42:23.660Z,19.20
2018-05-21T07:43:27.809Z,19.30
2018-05-21T07:44:32.005Z,19.30
2018-05-21T07:45:36.919Z,19.50
2018-05-21T07:46:41.094Z,19.50
2018-05-21T07:47:45.263Z,19.70
2018-05-21T07:48:49.438Z,19.80
2018-05-21T07:49:53.601Z,19.80
2018-05-21T07:50:57.749Z,19.80
2018-05-21T07:52:01.913Z,19.80
2018-05-21T07:53:06.099Z,19.80
2018-05-21T07:54:11.201Z,19.80
2018-05-21T07:55:15.386Z,19.80
2018-05-21T07:56:19.580Z,19.90
2018-05-21T07:57:23.765Z,19.90
2018-05-21T07:58:27.949Z,20.00
2018-05-21T07:59:32.125Z,20.00
2018-05-21T08:00:36.304Z,19.90
2018-05-21T08:01:40.482Z,19.90
2018-05-21T08:02:44.646Z,19.90
2018-05-21T08:03:48.821Z,19.90
2018-05-21T08:04:53.749Z,20.00
2018-05-21T08:05:59.185Z,20.00
2018-05-21T08:07:03.397Z,20.00
2018-05-21T08:08:08.339Z,20.20
2018-05-21T08:09:13.257Z,20.20
2018-05-21T08:10:18.218Z,20.30
2018-05-21T08:11:22.392Z,20.30
2018-05-21T08:12:26.548Z,20.40
2018-05-21T08:13:30.729Z,20.40
2018-05-21T08:14:35.712Z,20.50
2018-05-21T08:15:40.033Z,20.50
2018-05-21T08:16:44.261Z,20.60
2018-05-21T08:17:49.208Z,20.70
2018-05-21T08:18:54.165Z,20.80
2018-05-21T08:19:58.330Z,20.70
2018-05-21T08:21:02.532Z,20.70
2018-05-21T08:22:06.850Z,20.80
2018-05-21T08:23:11.017Z,20.70
2018-05-21T08:24:15.201Z,20.70
2018-05-21T08:25:19.372Z,20.70
2018-05-21T08:26:23.526Z,20.70
2018-05-21T08:27:27.708Z,20.80
2018-05-21T08:28:33.035Z,21.00
2018-05-21T08:29:37.286Z,20.90
2018-05-21T08:30:41.409Z,21.10
2018-05-21T08:31:45.556Z,21.20
2018-05-21T08:32:49.717Z,21.20
2018-05-21T08:33:54.018Z,21.20
2018-05-21T08:34:58.165Z,21.20
2018-05-21T08:36:02.310Z,21.20
2018-05-21T08:37:07.221Z,21.10
2018-05-21T08:38:11.365Z,21.10
2018-05-21T08:39:15.949Z,21.20
2018-05-21T08:40:20.093Z,21.20
2018-05-21T08:41:24.242Z,21.20
2018-05-21T08:42:28.419Z,21.20
2018-05-21T08:43:32.568Z,21.20
2018-05-21T08:44:36.794Z,21.20
2018-05-21T08:45:40.959Z,21.30
2018-05-21T08:46:45.093Z,21.30
2018-05-21T08:47:49.246Z,21.30
2018-05-21T08:48:54.158Z,21.50
2018-05-21T08:49:58.556Z,21.50
2018-05-21T08:51:02.735Z,21.60
2018-05-21T08:52:06.886Z,21.50
2018-05-21T08:53:11.024Z,21.60
2018-05-21T08:54:15.215Z,21.60
2018-05-21T08:55:19.484Z,21.60
2018-05-21T08:56:24.376Z,21.50
2018-05-21T08:57:28.577Z,21.50
2018-05-21T08:58:33.489Z,21.50
2018-05-21T08:59:37.644Z,21.50
2018-05-21T09:00:41.817Z,21.40
2018-05-21T09:01:46.726Z,21.50
2018-05-21T09:02:51.873Z,21.60
2018-05-21T09:03:56.801Z,21.50
2018-05-21T09:05:01.745Z,21.50
2018-05-21T09:06:06.657Z,21.50
2018-05-21T09:07:11.585Z,21.60
2018-05-21T09:08:16.525Z,21.70
2018-05-21T09:09:21.439Z,21.80
2018-05-21T09:10:25.614Z,21.80
2018-05-21T09:11:29.757Z,22.00
2018-05-21T09:12:33.996Z,22.00
2018-05-21T09:13:38.092Z,22.10
2018-05-21T09:14:42.237Z,22.20
2018-05-21T09:15:46.381Z,22.20
2018-05-21T09:16:50.525Z,22.20
2018-05-21T09:17:54.679Z,22.30
2018-05-21T09:18:59.013Z,22.30
2018-05-21T09:20:03.160Z,22.30
2018-05-21T09:21:07.312Z,22.30
2018-05-21T09:22:11.452Z,22.20
2018-05-21T09:23:15.597Z,22.20
2018-05-21T09:24:19.808Z,22.20
2018-05-21T09:25:23.950Z,22.30
2018-05-21T09:26:28.093Z,22.30
2018-05-21T09:27:33.016Z,22.20
2018-05-21T09:28:37.165Z,22.10
2018-05-21T09:29:41.329Z,22.20
2018-05-21T09:30:45.488Z,22.20
2018-05-21T09:31:49.628Z,22.30
2018-05-21T09:32:53.773Z,22.20
2018-05-21T09:33:57.930Z,22.20
2018-05-21T09:35:02.118Z,22.30
2018-05-21T09:36:06.318Z,22.40
2018-05-21T09:37:10.463Z,22.50
2018-05-21T09:38:14.643Z,22.50
2018-05-21T09:39:18.787Z,22.50
2018-05-21T09:40:22.937Z,22.50
2018-05-21T09:41:27.848Z,22.50
2018-05-21T09:42:33.497Z,22.50
2018-05-21T09:43:37.813Z,22.50
2018-05-21T09:44:41.970Z,22.60
2018-05-21T09:45:46.114Z,22.70
2018-05-21T09:46:51.136Z,22.60
2018-05-21T09:47:55.283Z,22.60
2018-05-21T09:49:00.274Z,22.80
2018-05-21T09:50:04.425Z,22.80
2018-05-21T09:51:09.368Z,22.80
2018-05-21T09:52:13.513Z,22.80
2018-05-21T09:53:17.658Z,22.90
2018-05-21T09:54:21.979Z,22.90
2018-05-21T09:55:26.158Z,22.90
2018-05-21T09:56:30.314Z,22.90
2018-05-21T09:57:35.213Z,22.80
2018-05-21T09:58:39.366Z,22.80
2018-05-21T09:59:43.798Z,22.90
2018-05-21T10:00:53.430Z,22.90
2018-05-21T10:01:57.569Z,22.90
2018-05-21T10:03:01.705Z,23.00
2018-05-21T10:04:06.638Z,23.10
2018-05-21T10:05:11.686Z,23.10
2018-05-21T10:06:15.834Z,23.10
2018-05-21T10:07:19.994Z,23.10
2018-05-21T10:08:24.900Z,23.10
2018-05-21T10:09:29.057Z,23.10
2018-05-21T10:10:33.263Z,23.10
2018-05-21T10:11:37.406Z,23.10
2018-05-21T10:12:41.553Z,23.20
2018-05-21T10:13:46.465Z,23.30
2018-05-21T10:14:50.612Z,23.20
2018-05-21T10:15:54.994Z,23.20
2018-05-21T10:16:59.132Z,23.20
2018-05-21T10:18:03.274Z,23.30
2018-05-21T10:19:07.426Z,23.30
2018-05-21T10:20:12.350Z,23.30
2018-05-21T10:21:16.563Z,23.30
2018-05-21T10:22:21.549Z,23.20
2018-05-21T10:23:25.696Z,23.20
2018-05-21T10:24:29.905Z,23.20
2018-05-21T10:25:34.082Z,23.30
2018-05-21T10:26:38.227Z,23.50
2018-05-21T10:27:42.373Z,23.60
2018-05-21T10:28:46.550Z,23.70
2018-05-21T10:29:51.471Z,23.80
2018-05-21T10:30:55.612Z,23.80
2018-05-21T10:31:59.985Z,23.80
2018-05-21T10:33:04.125Z,23.80
2018-05-21T10:34:08.280Z,23.90
2018-05-21T10:35:12.430Z,23.90
2018-05-21T10:36:17.341Z,24.00
2018-05-21T10:37:23.117Z,24.10
2018-05-21T10:38:27.277Z,24.10
2018-05-21T10:39:31.430Z,24.10
2018-05-21T10:40:36.343Z,24.20
2018-05-21T10:41:40.494Z,24.20
2018-05-21T10:42:44.871Z,24.30
2018-05-21T10:43:49.839Z,24.20
2018-05-21T10:44:54.008Z,24.20
2018-05-21T10:45:58.148Z,24.30
2018-05-21T10:47:02.293Z,24.30
2018-05-21T10:48:06.483Z,24.30
2018-05-21T10:49:10.620Z,24.40
2018-05-21T10:50:15.561Z,24.30
2018-05-21T10:51:19.911Z,24.20
2018-05-21T10:52:24.801Z,24.20
2018-05-21T10:53:30.448Z,24.20
2018-05-21T10:54:34.597Z,24.20
2018-05-21T10:55:38.742Z,24.30
2018-05-21T10:56:42.924Z,24.30
2018-05-21T10:57:47.094Z,24.20
2018-05-21T10:58:51.237Z,24.10
2018-05-21T10:59:55.379Z,24.00
2018-05-21T11:00:59.555Z,24.00
2018-05-21T11:02:03.845Z,23.90
2018-05-21T11:03:08.763Z,23.80
2018-05-21T11:04:13.725Z,23.80
2018-05-21T11:05:17.881Z,23.80
2018-05-21T11:06:23.538Z,24.10
2018-05-21T11:07:28.666Z,24.20
2018-05-21T11:08:34.344Z,24.20
2018-05-21T11:09:38.479Z,24.20
2018-05-21T11:10:42.629Z,24.30
2018-05-21T11:11:46.772Z,24.40
2018-05-21T11:12:51.158Z,24.40
2018-05-21T11:13:55.292Z,24.50
2018-05-21T11:14:59.442Z,24.50
2018-05-21T11:16:03.589Z,24.40
2018-05-21T11:17:08.509Z,24.60
2018-05-21T11:18:12.831Z,24.60
2018-05-21T11:19:16.963Z,24.70
2018-05-21T11:20:21.127Z,24.60
2018-05-21T11:21:25.282Z,24.60
2018-05-21T11:22:29.427Z,24.60
2018-05-21T11:23:33.593Z,24.50
2018-05-21T11:24:38.581Z,24.60
2018-05-21T11:25:42.689Z,24.50
2018-05-21T11:26:46.840Z,24.50
2018-05-21T11:27:51.757Z,24.60
2018-05-21T11:28:56.699Z,24.60
2018-05-21T11:30:01.627Z,24.60
2018-05-21T11:31:05.786Z,24.60
2018-05-21T11:32:09.937Z,24.60
2018-05-21T11:33:14.855Z,24.60
2018-05-21T11:34:19.802Z,24.60
2018-05-21T11:35:24.724Z,24.70
2018-05-21T11:36:28.867Z,24.70
2018-05-21T11:37:33.036Z,24.60
2018-05-21T11:38:38.005Z,24.40
2018-05-21T11:39:42.170Z,24.40
2018-05-21T11:40:47.089Z,24.50
2018-05-21T11:41:52.028Z,24.50
2018-05-21T11:42:57.068Z,24.60
2018-05-21T11:44:01.981Z,24.60
2018-05-21T11:45:07.301Z,24.60
2018-05-21T11:46:11.446Z,24.50
2018-05-21T11:47:16.353Z,24.40
2018-05-21T11:48:20.509Z,24.40
2018-05-21T11:49:24.656Z,24.40
2018-05-21T11:50:28.881Z,24.50
2018-05-21T11:51:33.025Z,24.60
2018-05-21T11:52:37.169Z,24.70
2018-05-21T11:53:41.313Z,24.70
2018-05-21T11:54:46.225Z,24.80
2018-05-21T11:55:50.421Z,24.80
2018-05-21T11:56:54.562Z,24.80
2018-05-21T11:57:59.503Z,24.80
2018-05-21T11:59:04.412Z,24.80
2018-05-21T12:00:09.335Z,24.80
2018-05-21T12:01:13.510Z,24.70
2018-05-21T12:02:17.859Z,24.70
2018-05-21T12:03:22.008Z,24.70
2018-05-21T12:04:26.158Z,24.80
2018-05-21T12:05:30.327Z,24.80
2018-05-21T12:06:34.554Z,24.80
2018-05-21T12:07:39.005Z,24.80
2018-05-21T12:08:43.086Z,24.60
2018-05-21T12:09:47.227Z,24.50
2018-05-21T12:10:51.376Z,24.50
2018-05-21T12:11:55.522Z,24.50
2018-05-21T12:12:59.725Z,24.50
2018-05-21T12:14:03.906Z,24.50
2018-05-21T12:15:08.074Z,24.60
2018-05-21T12:16:12.214Z,24.60
2018-05-21T12:17:16.357Z,24.80
2018-05-21T12:18:20.718Z,24.90
2018-05-21T12:19:25.653Z,25.00
2018-05-21T12:20:30.561Z,25.00
2018-05-21T12:21:34.713Z,25.00
2018-05-21T12:22:38.848Z,24.90
2018-05-21T12:23:43.101Z,24.80
2018-05-21T12:24:47.190Z,24.70
2018-05-21T12:25:51.809Z,24.70
2018-05-21T12:26:56.717Z,24.60
2018-05-21T12:28:00.861Z,24.60
2018-05-21T12:29:05.013Z,24.70
2018-05-21T12:30:09.165Z,24.70
2018-05-21T12:31:13.370Z,24.90
2018-05-21T12:32:19.113Z,25.00
2018-05-21T12:33:23.256Z,25.00
2018-05-21T12:34:28.173Z,25.20
2018-05-21T12:35:32.391Z,25.20
2018-05-21T12:36:37.737Z,25.30
2018-05-21T12:37:42.641Z,25.30
2018-05-21T12:38:47.546Z,25.30
2018-05-21T12:39:51.719Z,25.30
2018-05-21T12:40:55.874Z,25.30
2018-05-21T12:42:00.188Z,25.30
2018-05-21T12:43:04.276Z,25.30
2018-05-21T12:44:08.432Z,25.30
2018-05-21T12:45:13.349Z,25.30
2018-05-21T12:46:17.514Z,25.30
2018-05-21T12:47:22.083Z,25.30
2018-05-21T12:48:26.997Z,25.30
2018-05-21T12:49:31.159Z,25.30
2018-05-21T12:50:35.309Z,25.30
2018-05-21T12:51:39.459Z,25.40
2018-05-21T12:52:44.752Z,25.40
2018-05-21T12:53:48.909Z,25.40
2018-05-21T12:54:53.053Z,25.40
2018-05-21T12:55:57.205Z,25.50
2018-05-21T12:57:02.108Z,25.60
2018-05-21T12:58:07.081Z,25.70
2018-05-21T12:59:11.248Z,25.60
2018-05-21T13:00:16.933Z,25.50
2018-05-21T13:01:22.576Z,25.50
2018-05-21T13:02:26.732Z,25.40
2018-05-21T13:03:30.894Z,25.40
2018-05-21T13:04:35.057Z,25.40
2018-05-21T13:05:39.224Z,25.40
2018-05-21T13:06:43.557Z,25.50
2018-05-21T13:07:47.710Z,25.50
2018-05-21T13:08:51.860Z,25.50
2018-05-21T13:09:55.996Z,25.50
2018-05-21T13:11:00.152Z,25.40
2018-05-21T13:12:05.107Z,25.40
2018-05-21T13:13:09.286Z,25.40
2018-05-21T13:14:14.218Z,25.30
2018-05-21T13:15:18.383Z,25.30
2018-05-21T13:16:22.547Z,25.20
2018-05-21T13:17:27.658Z,25.20
2018-05-21T13:18:31.806Z,25.20
2018-05-21T13:19:35.957Z,25.20
2018-05-21T13:20:40.104Z,25.10
2018-05-21T13:21:45.013Z,25.10
2018-05-21T13:22:49.176Z,25.10
2018-05-21T13:23:53.380Z,25.10
2018-05-21T13:24:57.537Z,25.10
2018-05-21T13:26:01.689Z,25.10
2018-05-21T13:27:05.836Z,25.00
2018-05-21T13:28:09.981Z,24.90
2018-05-21T13:29:14.905Z,24.80
2018-05-21T13:30:19.834Z,24.90
2018-05-21T13:31:25.165Z,24.90
2018-05-21T13:32:30.081Z,25.00
2018-05-21T13:33:34.229Z,25.00
2018-05-21T13:34:38.907Z,25.00
2018-05-21T13:35:43.013Z,25.10
2018-05-21T13:36:47.184Z,25.30
2018-05-21T13:37:51.325Z,25.40
2018-05-21T13:38:55.493Z,25.40
2018-05-21T13:39:59.641Z,25.40
2018-05-21T13:41:03.791Z,25.40
2018-05-21T13:42:08.701Z,25.40
2018-05-21T13:43:14.441Z,25.40
2018-05-21T13:44:18.548Z,25.40
2018-05-21T13:45:22.689Z,25.50
2018-05-21T13:46:27.631Z,25.40
2018-05-21T13:47:31.789Z,25.40
2018-05-21T13:48:35.941Z,25.30
2018-05-21T13:49:41.332Z,25.40
2018-05-21T13:50:45.482Z,25.40
2018-05-21T13:51:50.396Z,25.30